Nagagami, Canada
Current Conditions -  °F | °C
As of 11:00 PM on Friday 24 Oct 2014 (Local Time) from CYMO Reporting Station
Overcast Overcast  
Wind Chill: 41°   Ceiling: 10000
Heat Index: 46°   Visibility: 9mi
Dew Point: 43°   Wind: 12mph
Humidity: 87%   Direction: 210°SSW
Pressure: 29.59"   Gusts: 17mph
Location:  50.56°N, 81.95°W
Report Text: CYMO 250300Z AUTO 21010G15KT 9SM OVC100 08/06 A2959 RMK SLP021
Loading
Personal Weather Stations






























Interactive Weather Map
Tropical Storm Tracking
New forecast layout! Learn more

10-Day Weather Forecast

Advertisements
Track Severe Weather on mobile